createdAt,value
2022-10-26T00:01:22.217Z,100.00
2022-10-26T00:03:50.305Z,100.00
2022-10-26T00:06:21.078Z,100.00
2022-10-26T00:08:49.674Z,100.00
2022-10-26T00:11:19.267Z,100.00
2022-10-26T00:13:48.254Z,100.00
2022-10-26T00:16:24.548Z,100.00
2022-10-26T00:18:52.751Z,100.00
2022-10-26T00:21:20.615Z,100.00
2022-10-26T00:23:48.675Z,100.00
2022-10-26T00:26:16.633Z,100.00
2022-10-26T00:28:44.558Z,100.00
2022-10-26T00:31:16.767Z,100.00
2022-10-26T00:33:44.778Z,100.00
2022-10-26T00:36:16.951Z,100.00
2022-10-26T00:38:53.973Z,100.00
2022-10-26T00:41:32.051Z,100.00
2022-10-26T00:44:01.107Z,100.00
2022-10-26T00:46:39.654Z,100.00
2022-10-26T00:49:17.117Z,100.00
2022-10-26T00:51:50.450Z,100.00
2022-10-26T00:54:19.870Z,100.00
2022-10-26T00:56:51.539Z,100.00
2022-10-26T00:59:21.933Z,100.00
2022-10-26T01:01:51.272Z,100.00
2022-10-26T01:04:19.811Z,100.00
2022-10-26T01:06:48.749Z,100.00
2022-10-26T01:09:18.156Z,100.00
2022-10-26T01:11:46.827Z,100.00
2022-10-26T01:14:17.963Z,100.00
2022-10-26T01:17:06.839Z,100.00
2022-10-26T01:19:59.316Z,100.00
2022-10-26T01:22:35.802Z,100.00
2022-10-26T01:25:27.621Z,100.00
2022-10-26T01:27:55.621Z,100.00
2022-10-26T01:30:46.320Z,100.00
2022-10-26T01:33:28.301Z,100.00
2022-10-26T01:36:33.935Z,100.00
2022-10-26T01:39:18.750Z,100.00
2022-10-26T01:41:50.028Z,100.00
2022-10-26T01:44:39.893Z,100.00
2022-10-26T01:47:12.406Z,100.00
2022-10-26T01:49:47.190Z,100.00
2022-10-26T01:52:15.213Z,100.00
2022-10-26T01:54:43.095Z,100.00
2022-10-26T01:57:15.368Z,100.00
2022-10-26T01:59:48.961Z,100.00
2022-10-26T02:02:38.039Z,100.00
2022-10-26T02:05:30.350Z,100.00
2022-10-26T02:08:41.145Z,100.00
2022-10-26T02:11:40.355Z,100.00
2022-10-26T02:14:19.231Z,100.00
2022-10-26T02:17:30.242Z,100.00
2022-10-26T02:20:07.506Z,100.00
2022-10-26T02:22:38.276Z,100.00
2022-10-26T02:25:19.799Z,100.00
2022-10-26T02:27:56.004Z,100.00
2022-10-26T02:30:23.954Z,100.00
2022-10-26T02:32:55.412Z,100.00
2022-10-26T02:35:31.556Z,100.00
2022-10-26T02:38:03.286Z,100.00
2022-10-26T02:40:32.916Z,100.00
2022-10-26T02:43:06.609Z,100.00
2022-10-26T02:45:58.318Z,100.00
2022-10-26T02:48:26.350Z,100.00
2022-10-26T02:51:09.218Z,100.00
2022-10-26T02:54:15.823Z,100.00
2022-10-26T02:56:54.689Z,100.00
2022-10-26T02:59:28.169Z,100.00
2022-10-26T03:01:56.971Z,100.00
2022-10-26T03:04:32.869Z,100.00
2022-10-26T03:07:01.170Z,100.00
2022-10-26T03:09:29.285Z,100.00
2022-10-26T03:11:57.267Z,100.00
2022-10-26T03:14:25.238Z,100.00
2022-10-26T03:16:53.297Z,100.00
2022-10-26T03:19:21.300Z,100.00
2022-10-26T03:21:49.222Z,100.00
2022-10-26T03:24:17.477Z,100.00
2022-10-26T03:26:45.239Z,100.00
2022-10-26T03:29:13.029Z,100.00
2022-10-26T03:31:40.944Z,100.00
2022-10-26T03:34:08.875Z,100.00
2022-10-26T03:36:36.678Z,100.00
2022-10-26T03:39:04.661Z,100.00
2022-10-26T03:41:32.552Z,100.00
2022-10-26T03:44:00.532Z,100.00
2022-10-26T03:46:28.473Z,100.00
2022-10-26T03:48:56.470Z,100.00
2022-10-26T03:51:24.417Z,100.00
2022-10-26T03:53:52.517Z,100.00
2022-10-26T03:56:20.397Z,100.00
2022-10-26T03:58:48.309Z,100.00
2022-10-26T04:01:16.332Z,100.00
2022-10-26T04:03:44.395Z,100.00
2022-10-26T04:06:12.414Z,100.00
2022-10-26T04:08:40.420Z,100.00
2022-10-26T04:11:08.348Z,100.00
2022-10-26T04:13:36.334Z,100.00
2022-10-26T04:16:04.449Z,100.00
2022-10-26T04:18:32.317Z,100.00
2022-10-26T04:21:03.381Z,100.00
2022-10-26T04:23:31.335Z,100.00
2022-10-26T04:25:59.147Z,100.00
2022-10-26T04:28:27.026Z,100.00
2022-10-26T04:30:54.899Z,100.00
2022-10-26T04:33:22.837Z,100.00
2022-10-26T04:35:50.694Z,100.00
2022-10-26T04:38:18.565Z,100.00
2022-10-26T04:40:46.414Z,100.00
2022-10-26T04:43:14.247Z,100.00
2022-10-26T04:45:42.145Z,100.00
2022-10-26T04:48:14.393Z,100.00
2022-10-26T04:50:42.410Z,100.00
2022-10-26T04:53:11.976Z,100.00
2022-10-26T04:55:39.863Z,100.00
2022-10-26T04:58:07.950Z,100.00
2022-10-26T05:00:35.948Z,100.00
2022-10-26T05:03:06.705Z,100.00
2022-10-26T05:05:36.941Z,100.00
2022-10-26T05:08:05.664Z,100.00
2022-10-26T05:10:33.756Z,100.00
2022-10-26T05:13:02.344Z,100.00
2022-10-26T05:15:30.922Z,100.00
2022-10-26T05:18:04.357Z,100.00
2022-10-26T05:20:34.585Z,100.00
2022-10-26T05:23:06.524Z,100.00
2022-10-26T05:25:38.614Z,100.00
2022-10-26T05:28:12.009Z,100.00
2022-10-26T05:30:45.135Z,100.00
2022-10-26T05:33:14.688Z,100.00
2022-10-26T05:35:42.847Z,100.00
2022-10-26T05:38:17.230Z,100.00
2022-10-26T05:40:50.102Z,100.00
2022-10-26T05:43:19.390Z,100.00
2022-10-26T05:45:47.594Z,100.00
2022-10-26T05:48:15.423Z,100.00
2022-10-26T05:50:43.407Z,100.00
2022-10-26T05:53:11.253Z,100.00
2022-10-26T05:55:39.777Z,100.00
2022-10-26T05:58:13.333Z,100.00
2022-10-26T06:01:14.476Z,100.00
2022-10-26T06:04:02.359Z,100.00
2022-10-26T06:06:45.030Z,100.00
2022-10-26T06:09:15.700Z,100.00
2022-10-26T06:11:44.073Z,100.00
2022-10-26T06:14:12.545Z,100.00
2022-10-26T06:16:40.298Z,100.00
2022-10-26T06:20:02.517Z,100.00
2022-10-26T06:23:16.479Z,100.00
2022-10-26T06:26:05.732Z,100.00
2022-10-26T06:29:12.191Z,100.00
2022-10-26T06:31:40.411Z,100.00
2022-10-26T06:34:12.496Z,100.00
2022-10-26T06:36:41.708Z,100.00
2022-10-26T06:39:12.247Z,100.00
2022-10-26T06:41:40.606Z,100.00
2022-10-26T06:44:21.966Z,100.00
2022-10-26T06:46:54.937Z,100.00
2022-10-26T06:49:32.705Z,100.00
2022-10-26T06:52:12.390Z,100.00
2022-10-26T06:54:52.254Z,100.00
2022-10-26T06:57:27.014Z,100.00
2022-10-26T07:00:00.634Z,100.00
2022-10-26T07:02:29.409Z,100.00
2022-10-26T07:04:57.620Z,100.00
2022-10-26T07:07:30.858Z,100.00
2022-10-26T07:09:58.889Z,100.00
2022-10-26T07:12:30.754Z,100.00
2022-10-26T07:15:00.956Z,100.00
2022-10-26T07:17:30.629Z,100.00
2022-10-26T07:19:58.609Z,100.00
2022-10-26T07:22:26.456Z,100.00
2022-10-26T07:24:56.966Z,100.00
2022-10-26T07:27:27.216Z,100.00
2022-10-26T07:29:55.152Z,100.00
2022-10-26T07:32:23.014Z,100.00
2022-10-26T07:34:51.013Z,100.00
2022-10-26T07:37:18.916Z,100.00
2022-10-26T07:39:46.838Z,100.00
2022-10-26T07:42:16.321Z,100.00
2022-10-26T07:44:44.407Z,100.00
2022-10-26T07:47:12.808Z,100.00
2022-10-26T07:49:40.883Z,100.00
2022-10-26T07:52:10.245Z,100.00
2022-10-26T07:54:38.566Z,100.00
2022-10-26T07:57:06.416Z,100.00
2022-10-26T07:59:35.061Z,100.00
2022-10-26T08:02:03.029Z,100.00
2022-10-26T08:04:31.042Z,100.00
2022-10-26T08:06:59.155Z,100.00
2022-10-26T08:09:27.046Z,100.00
2022-10-26T08:11:54.927Z,100.00
2022-10-26T08:14:23.375Z,100.00
2022-10-26T08:16:52.690Z,100.00
2022-10-26T08:19:21.017Z,100.00
2022-10-26T08:21:48.985Z,100.00
2022-10-26T08:24:17.137Z,100.00
2022-10-26T08:26:46.643Z,100.00
2022-10-26T08:29:15.131Z,100.00
2022-10-26T08:31:43.593Z,100.00
2022-10-26T08:34:12.790Z,100.00
2022-10-26T08:36:42.393Z,100.00
2022-10-26T08:39:10.161Z,100.00
2022-10-26T08:41:45.298Z,100.00
2022-10-26T08:44:34.122Z,100.00
2022-10-26T08:47:20.023Z,100.00
2022-10-26T08:49:59.365Z,100.00
2022-10-26T08:52:41.313Z,100.00
2022-10-26T08:55:16.541Z,100.00
2022-10-26T08:57:48.524Z,100.00
2022-10-26T09:00:21.552Z,100.00
2022-10-26T09:02:53.694Z,100.00
2022-10-26T09:05:39.398Z,100.00
2022-10-26T09:08:29.488Z,100.00
2022-10-26T09:11:34.870Z,100.00
2022-10-26T09:14:17.803Z,100.00
2022-10-26T09:17:17.953Z,100.00
2022-10-26T09:20:00.771Z,100.00
2022-10-26T09:23:32.066Z,100.00
2022-10-26T09:26:02.982Z,100.00
2022-10-26T09:28:36.533Z,100.00
2022-10-26T09:31:06.195Z,100.00
2022-10-26T09:33:39.710Z,100.00
2022-10-26T09:36:16.749Z,100.00
2022-10-26T09:38:47.494Z,100.00
2022-10-26T09:41:32.228Z,100.00
2022-10-26T09:44:30.174Z,100.00
2022-10-26T09:47:33.656Z,100.00
2022-10-26T09:50:29.472Z,100.00
2022-10-26T09:52:57.401Z,100.00
2022-10-26T09:55:25.481Z,100.00
2022-10-26T09:57:58.360Z,100.00
2022-10-26T10:00:28.976Z,100.00
2022-10-26T10:02:58.908Z,100.00
2022-10-26T10:05:50.868Z,100.00
2022-10-26T10:08:25.270Z,100.00
2022-10-26T10:10:59.475Z,100.00
2022-10-26T10:13:32.453Z,100.00
2022-10-26T10:16:20.189Z,100.00
2022-10-26T10:18:59.790Z,100.00
2022-10-26T10:21:45.870Z,100.00
2022-10-26T10:24:32.622Z,100.00
2022-10-26T10:27:18.592Z,100.00
2022-10-26T10:29:59.662Z,100.00
2022-10-26T10:32:35.808Z,100.00
2022-10-26T10:35:29.407Z,100.00
2022-10-26T10:38:04.646Z,100.00
2022-10-26T10:40:32.138Z,100.00
2022-10-26T10:43:13.498Z,100.00
2022-10-26T10:45:41.497Z,100.00
2022-10-26T10:48:22.883Z,100.00
2022-10-26T10:51:12.454Z,100.00
2022-10-26T10:53:53.664Z,100.00
2022-10-26T10:56:51.695Z,100.00
2022-10-26T11:00:03.257Z,100.00
2022-10-26T11:03:17.045Z,100.00
2022-10-26T11:06:22.318Z,100.00
2022-10-26T11:09:16.690Z,100.00
2022-10-26T11:12:02.239Z,100.00
2022-10-26T11:14:35.956Z,100.00
2022-10-26T11:17:19.965Z,100.00
2022-10-26T11:20:21.067Z,100.00
2022-10-26T11:22:56.487Z,100.00
2022-10-26T11:25:34.847Z,100.00
2022-10-26T11:28:30.827Z,100.00
2022-10-26T11:31:06.362Z,100.00
2022-10-26T11:36:26.002Z,100.00
2022-10-26T11:39:21.168Z,100.00
2022-10-26T11:42:03.873Z,100.00
2022-10-26T11:44:40.353Z,100.00
2022-10-26T11:47:17.170Z,100.00
2022-10-26T11:50:17.481Z,100.00
2022-10-26T11:52:55.020Z,100.00
2022-10-26T11:55:23.208Z,100.00
2022-10-26T11:57:53.799Z,100.00
2022-10-26T12:00:22.743Z,100.00
2022-10-26T12:03:08.449Z,100.00
2022-10-26T12:05:51.717Z,100.00
2022-10-26T12:08:27.975Z,100.00
2022-10-26T12:11:09.828Z,100.00
2022-10-26T12:13:52.530Z,100.00
2022-10-26T12:17:09.186Z,98.70
2022-10-26T12:19:45.662Z,97.79
2022-10-26T12:22:17.766Z,96.98
2022-10-26T12:24:47.449Z,97.18
2022-10-26T12:27:40.159Z,94.57
2022-10-26T12:30:19.118Z,93.09
2022-10-26T12:32:48.514Z,91.63
2022-10-26T12:35:39.154Z,93.50
2022-10-26T12:38:38.184Z,95.00
2022-10-26T12:41:20.260Z,91.77
2022-10-26T12:43:47.487Z,93.45
2022-10-26T12:46:14.323Z,91.88
2022-10-26T12:48:51.542Z,88.88
2022-10-26T12:51:26.816Z,89.46
2022-10-26T12:54:35.806Z,89.57
2022-10-26T12:57:27.357Z,89.76
2022-10-26T13:00:06.359Z,89.96
2022-10-26T13:03:26.794Z,90.99
2022-10-26T13:06:31.596Z,90.37
2022-10-26T13:09:01.929Z,88.62
2022-10-26T13:11:44.331Z,88.81
2022-10-26T13:14:33.055Z,87.57
2022-10-26T13:17:02.568Z,88.90
2022-10-26T13:19:49.370Z,91.28
2022-10-26T13:22:21.181Z,90.65
2022-10-26T13:24:53.935Z,93.57
2022-10-26T13:27:39.333Z,93.87
2022-10-26T13:30:38.645Z,93.52
2022-10-26T13:33:15.349Z,93.99
2022-10-26T13:35:50.302Z,93.68
2022-10-26T13:38:23.259Z,91.86
2022-10-26T13:40:53.395Z,92.36
2022-10-26T13:43:23.629Z,91.96
2022-10-26T13:46:04.519Z,89.97
2022-10-26T13:48:42.870Z,88.21
2022-10-26T13:51:25.396Z,87.21
2022-10-26T13:54:16.696Z,90.20
2022-10-26T13:57:03.634Z,89.78
2022-10-26T13:59:33.560Z,88.28
2022-10-26T14:02:32.486Z,89.31
2022-10-26T14:05:05.614Z,81.50
2022-10-26T14:07:56.840Z,79.36
2022-10-26T14:10:44.914Z,79.88
2022-10-26T14:13:25.340Z,84.33
2022-10-26T14:15:54.479Z,83.60
2022-10-26T14:18:30.892Z,83.47
2022-10-26T14:21:06.567Z,84.66
2022-10-26T14:23:50.050Z,86.13
2022-10-26T14:26:29.503Z,85.80
2022-10-26T14:29:02.016Z,86.30
2022-10-26T14:31:32.255Z,86.68
2022-10-26T14:34:01.639Z,86.82
2022-10-26T14:36:41.142Z,87.50
2022-10-26T14:39:31.065Z,86.99
2022-10-26T14:42:02.303Z,86.42
2022-10-26T14:44:30.670Z,87.04
2022-10-26T14:46:57.666Z,88.42
2022-10-26T14:49:28.003Z,86.71
2022-10-26T14:52:05.077Z,84.93
2022-10-26T14:54:33.822Z,84.76
2022-10-26T14:57:08.610Z,86.76
2022-10-26T14:59:35.811Z,93.93
2022-10-26T15:02:21.297Z,100.00
2022-10-26T15:05:18.954Z,100.00
2022-10-26T15:07:46.056Z,100.00
2022-10-26T15:10:37.571Z,100.00
2022-10-26T15:13:31.278Z,100.00
2022-10-26T15:16:10.309Z,100.00
2022-10-26T15:18:38.727Z,100.00
2022-10-26T15:21:26.227Z,100.00
2022-10-26T15:23:54.955Z,100.00
2022-10-26T15:26:22.711Z,100.00
2022-10-26T15:28:50.246Z,100.00
2022-10-26T15:31:17.058Z,100.00
2022-10-26T15:34:03.884Z,100.00
2022-10-26T15:36:32.109Z,100.00
2022-10-26T15:38:59.677Z,100.00
2022-10-26T15:41:32.935Z,100.00
2022-10-26T15:44:05.954Z,100.00
2022-10-26T15:46:36.014Z,100.00
2022-10-26T15:49:08.508Z,100.00
2022-10-26T15:51:35.588Z,100.00
2022-10-26T15:54:04.611Z,100.00
2022-10-26T15:56:32.384Z,100.00
2022-10-26T15:58:59.653Z,100.00
2022-10-26T16:01:29.356Z,100.00
2022-10-26T16:03:56.543Z,100.00
2022-10-26T16:06:35.036Z,100.00
2022-10-26T16:09:05.414Z,100.00
2022-10-26T16:11:32.625Z,100.00
2022-10-26T16:14:02.841Z,100.00
2022-10-26T16:16:31.459Z,100.00
2022-10-26T16:19:18.463Z,100.00
2022-10-26T16:21:45.449Z,100.00
2022-10-26T16:24:13.373Z,100.00
2022-10-26T16:26:40.333Z,100.00
2022-10-26T16:29:07.240Z,100.00
2022-10-26T16:31:34.266Z,100.00
2022-10-26T16:34:04.099Z,100.00
2022-10-26T16:36:34.258Z,100.00
2022-10-26T16:41:32.018Z,100.00
2022-10-26T16:43:59.085Z,100.00
2022-10-26T16:46:26.097Z,100.00
2022-10-26T16:48:53.030Z,100.00
2022-10-26T16:51:28.324Z,100.00
2022-10-26T16:53:57.288Z,100.00
2022-10-26T16:56:28.401Z,100.00
2022-10-26T16:58:56.636Z,100.00
2022-10-26T17:01:23.824Z,100.00
2022-10-26T17:03:52.380Z,100.00
2022-10-26T17:06:19.809Z,100.00
2022-10-26T17:08:47.474Z,100.00
2022-10-26T17:11:19.192Z,100.00
2022-10-26T17:13:47.174Z,100.00
2022-10-26T17:16:20.699Z,100.00
2022-10-26T17:18:48.489Z,100.00
2022-10-26T17:21:17.570Z,100.00
2022-10-26T17:23:44.627Z,100.00
2022-10-26T17:26:14.011Z,100.00
2022-10-26T17:28:40.942Z,100.00
2022-10-26T17:31:14.929Z,100.00
2022-10-26T17:33:44.406Z,100.00
2022-10-26T17:36:13.990Z,100.00
2022-10-26T17:38:42.584Z,100.00
2022-10-26T17:41:18.739Z,100.00
2022-10-26T17:43:47.311Z,100.00
2022-10-26T17:46:20.989Z,100.00
2022-10-26T17:48:48.015Z,100.00
2022-10-26T17:51:18.435Z,100.00
2022-10-26T17:53:50.280Z,100.00
2022-10-26T17:56:21.953Z,100.00
2022-10-26T17:58:54.652Z,100.00
2022-10-26T18:01:22.372Z,100.00
2022-10-26T18:03:49.578Z,100.00
2022-10-26T18:06:19.886Z,100.00
2022-10-26T18:08:47.346Z,100.00
2022-10-26T18:11:24.022Z,100.00
2022-10-26T18:13:55.048Z,100.00
2022-10-26T18:16:23.859Z,100.00
2022-10-26T18:19:00.645Z,100.00
2022-10-26T18:21:31.192Z,100.00
2022-10-26T18:24:03.140Z,100.00
2022-10-26T18:26:36.321Z,100.00
2022-10-26T18:29:05.144Z,100.00
2022-10-26T18:31:34.919Z,100.00
2022-10-26T18:34:04.469Z,100.00
2022-10-26T18:36:32.599Z,100.00
2022-10-26T18:38:59.941Z,100.00
2022-10-26T18:41:27.385Z,100.00
2022-10-26T18:43:59.665Z,100.00
2022-10-26T18:46:30.719Z,100.00
2022-10-26T18:48:59.258Z,100.00
2022-10-26T18:51:30.963Z,100.00
2022-10-26T18:53:59.158Z,100.00
2022-10-26T18:56:27.317Z,100.00
2022-10-26T18:58:58.816Z,100.00
2022-10-26T19:01:28.511Z,100.00
2022-10-26T19:04:02.261Z,100.00
2022-10-26T19:06:33.331Z,100.00
2022-10-26T19:09:01.134Z,100.00
2022-10-26T19:11:30.472Z,100.00
2022-10-26T19:13:57.791Z,100.00
2022-10-26T19:19:17.023Z,100.00
2022-10-26T19:21:46.239Z,100.00
2022-10-26T19:24:20.315Z,100.00
2022-10-26T19:26:48.973Z,100.00
2022-10-26T19:29:17.269Z,100.00
2022-10-26T19:31:46.328Z,100.00
2022-10-26T19:34:15.170Z,100.00
2022-10-26T19:36:45.036Z,100.00
2022-10-26T19:39:16.675Z,100.00
2022-10-26T19:41:45.251Z,100.00
2022-10-26T19:44:14.445Z,100.00
2022-10-26T19:46:43.295Z,100.00
2022-10-26T19:49:10.538Z,100.00
2022-10-26T19:51:37.472Z,100.00
2022-10-26T19:54:06.784Z,100.00
2022-10-26T19:56:36.396Z,100.00
2022-10-26T19:59:04.141Z,100.00
2022-10-26T20:01:31.369Z,100.00
2022-10-26T20:03:58.467Z,100.00
2022-10-26T20:06:25.477Z,100.00
2022-10-26T20:08:52.421Z,100.00
2022-10-26T20:11:20.492Z,100.00
2022-10-26T20:13:48.572Z,100.00
2022-10-26T20:16:17.530Z,100.00
2022-10-26T20:18:47.847Z,100.00
2022-10-26T20:21:17.613Z,100.00
2022-10-26T20:23:45.335Z,100.00
2022-10-26T20:26:19.267Z,100.00
2022-10-26T20:28:48.452Z,100.00
2022-10-26T20:31:15.667Z,100.00
2022-10-26T20:33:42.724Z,100.00
2022-10-26T20:36:09.753Z,100.00
2022-10-26T20:38:38.414Z,100.00
2022-10-26T20:41:09.250Z,100.00
2022-10-26T20:43:40.041Z,100.00
2022-10-26T20:46:22.547Z,100.00
2022-10-26T20:48:51.194Z,100.00
2022-10-26T20:51:23.601Z,100.00
2022-10-26T20:54:17.771Z,100.00
2022-10-26T20:56:45.611Z,100.00
2022-10-26T20:59:43.624Z,100.00
2022-10-26T21:02:11.045Z,100.00
2022-10-26T21:04:38.568Z,100.00
2022-10-26T21:07:05.870Z,100.00
2022-10-26T21:09:35.783Z,100.00
2022-10-26T21:12:04.637Z,100.00
2022-10-26T21:14:35.831Z,100.00
2022-10-26T21:17:02.745Z,100.00
2022-10-26T21:19:29.646Z,100.00
2022-10-26T21:21:56.553Z,100.00
2022-10-26T21:24:23.721Z,100.00
2022-10-26T21:26:50.634Z,100.00
2022-10-26T21:29:18.298Z,100.00
2022-10-26T21:31:45.305Z,100.00
2022-10-26T21:34:12.628Z,100.00
2022-10-26T21:36:39.553Z,100.00
2022-10-26T21:39:06.502Z,100.00
2022-10-26T21:41:36.778Z,100.00
2022-10-26T21:44:09.255Z,100.00
2022-10-26T21:46:40.500Z,100.00
2022-10-26T21:49:07.431Z,100.00
2022-10-26T21:51:35.219Z,100.00
2022-10-26T21:54:03.239Z,100.00
2022-10-26T21:56:30.188Z,100.00
2022-10-26T21:59:00.344Z,100.00
2022-10-26T22:01:27.489Z,100.00
2022-10-26T22:03:54.797Z,100.00
2022-10-26T22:06:22.087Z,100.00
2022-10-26T22:08:50.265Z,100.00
2022-10-26T22:11:21.346Z,100.00
2022-10-26T22:13:49.993Z,100.00
2022-10-26T22:16:25.927Z,100.00
2022-10-26T22:18:55.737Z,100.00
2022-10-26T22:21:26.749Z,100.00
2022-10-26T22:23:54.186Z,100.00
2022-10-26T22:26:24.136Z,100.00
2022-10-26T22:28:54.875Z,100.00
2022-10-26T22:31:28.610Z,100.00
2022-10-26T22:34:08.195Z,100.00
2022-10-26T22:36:35.759Z,100.00
2022-10-26T22:39:03.128Z,100.00
2022-10-26T22:41:30.209Z,100.00
2022-10-26T22:43:57.140Z,100.00
2022-10-26T22:46:26.757Z,100.00
2022-10-26T22:49:00.257Z,100.00
2022-10-26T22:51:31.337Z,100.00
2022-10-26T22:54:01.632Z,100.00
2022-10-26T22:56:30.844Z,100.00
2022-10-26T22:58:58.186Z,100.00
2022-10-26T23:01:32.639Z,100.00
2022-10-26T23:04:00.418Z,100.00
2022-10-26T23:06:30.443Z,100.00
2022-10-26T23:08:58.166Z,100.00
2022-10-26T23:11:27.463Z,100.00
2022-10-26T23:14:00.601Z,100.00
2022-10-26T23:16:29.440Z,100.00
2022-10-26T23:18:58.325Z,100.00
2022-10-26T23:23:54.807Z,100.00
2022-10-26T23:26:22.311Z,100.00
2022-10-26T23:28:50.484Z,100.00
2022-10-26T23:31:19.749Z,100.00
2022-10-26T23:33:49.918Z,100.00
2022-10-26T23:36:16.993Z,100.00
2022-10-26T23:38:43.925Z,100.00
2022-10-26T23:41:12.981Z,100.00
2022-10-26T23:43:40.581Z,100.00
2022-10-26T23:46:07.924Z,100.00
2022-10-26T23:48:34.882Z,100.00
2022-10-26T23:51:01.842Z,100.00
2022-10-26T23:53:29.180Z,100.00
2022-10-26T23:55:56.220Z,100.00
2022-10-26T23:58:23.173Z,100.00
